createdAt,value
2019-05-01T00:01:35.162Z,19.53
2019-05-01T00:04:17.157Z,19.60
2019-05-01T00:06:49.020Z,18.87
2019-05-01T00:09:18.158Z,19.27
2019-05-01T00:11:47.129Z,18.80
2019-05-01T00:14:16.114Z,19.50
2019-05-01T00:16:45.048Z,19.10
2019-05-01T00:19:13.990Z,19.00
2019-05-01T00:21:42.901Z,18.80
2019-05-01T00:24:11.715Z,18.53
2019-05-01T00:26:40.518Z,19.17
2019-05-01T00:29:09.423Z,19.87
2019-05-01T00:31:38.175Z,17.83
2019-05-01T00:34:07.169Z,17.67
2019-05-01T00:36:36.016Z,17.43
2019-05-01T00:39:07.340Z,18.20
2019-05-01T00:41:36.200Z,17.53
2019-05-01T00:44:05.076Z,17.57
2019-05-01T00:46:33.806Z,17.20
2019-05-01T00:49:02.651Z,18.10
2019-05-01T00:51:31.478Z,17.37
2019-05-01T00:54:00.291Z,17.77
2019-05-01T00:56:40.015Z,17.53
2019-05-01T00:59:24.021Z,17.53
2019-05-01T01:02:13.609Z,17.77
2019-05-01T01:04:42.395Z,17.40
2019-05-01T01:07:11.158Z,17.10
2019-05-01T01:09:40.070Z,17.90
2019-05-01T01:12:08.885Z,17.70
2019-05-01T01:14:37.713Z,18.63
2019-05-01T01:17:06.524Z,17.67
2019-05-01T01:19:35.313Z,18.53
2019-05-01T01:22:04.330Z,17.83
2019-05-01T01:24:33.330Z,17.67
2019-05-01T01:27:02.121Z,17.50
2019-05-01T01:29:31.022Z,17.27
2019-05-01T01:31:59.866Z,16.90
2019-05-01T01:34:28.666Z,17.67
2019-05-01T01:36:57.455Z,17.30
2019-05-01T01:39:26.303Z,17.83
2019-05-01T01:41:55.647Z,17.70
2019-05-01T01:44:32.194Z,17.87
2019-05-01T01:47:01.262Z,18.17
2019-05-01T01:49:30.336Z,17.63
2019-05-01T01:51:59.244Z,18.10
2019-05-01T01:54:28.353Z,19.43
2019-05-01T01:56:57.358Z,19.20
2019-05-01T01:59:26.942Z,19.90
2019-05-01T02:02:05.471Z,19.40
2019-05-01T02:04:49.600Z,18.30
2019-05-01T02:07:18.554Z,20.10
2019-05-01T02:09:47.440Z,18.17
2019-05-01T02:12:16.446Z,19.93
2019-05-01T02:14:45.333Z,21.07
2019-05-01T02:17:14.146Z,21.33
2019-05-01T02:19:42.993Z,21.30
2019-05-01T02:22:11.880Z,22.10
2019-05-01T02:24:40.734Z,22.77
2019-05-01T02:27:14.255Z,23.23
2019-05-01T02:29:48.368Z,21.63
2019-05-01T02:32:19.573Z,22.33
2019-05-01T02:34:49.604Z,22.57
2019-05-01T02:37:20.449Z,22.80
2019-05-01T02:39:50.965Z,22.60
2019-05-01T02:42:24.322Z,22.00
2019-05-01T02:44:55.268Z,23.10
2019-05-01T02:47:28.056Z,23.43
2019-05-01T02:50:07.256Z,22.37
2019-05-01T02:52:38.158Z,23.20
2019-05-01T02:55:16.695Z,24.47
2019-05-01T02:57:46.932Z,23.97
2019-05-01T03:00:16.201Z,24.17
2019-05-01T03:02:45.226Z,25.30
2019-05-01T03:05:14.174Z,23.73
2019-05-01T03:07:43.874Z,25.10
2019-05-01T03:10:12.866Z,24.87
2019-05-01T03:12:44.623Z,25.63
2019-05-01T03:15:14.896Z,24.40
2019-05-01T03:17:57.197Z,24.43
2019-05-01T03:20:48.660Z,25.47
2019-05-01T03:23:34.360Z,24.77
2019-05-01T03:26:03.723Z,27.30
2019-05-01T03:28:32.591Z,26.27
2019-05-01T03:31:01.743Z,26.40
2019-05-01T03:33:30.689Z,26.13
2019-05-01T03:35:59.563Z,26.60
2019-05-01T03:38:29.656Z,28.87
2019-05-01T03:40:58.648Z,25.53
2019-05-01T03:43:27.768Z,28.27
2019-05-01T03:45:56.971Z,28.20
2019-05-01T03:48:26.582Z,27.63
2019-05-01T03:50:55.553Z,30.47
2019-05-01T03:53:24.561Z,29.30
2019-05-01T03:55:53.420Z,31.00
2019-05-01T03:58:23.187Z,30.73
2019-05-01T04:01:10.446Z,31.03
2019-05-01T04:03:46.485Z,30.83
2019-05-01T04:06:15.484Z,30.87
2019-05-01T04:08:44.815Z,31.27
2019-05-01T04:11:13.996Z,30.53
2019-05-01T04:13:43.099Z,31.90
2019-05-01T04:16:12.048Z,29.90
2019-05-01T04:18:41.229Z,32.23
2019-05-01T04:21:10.427Z,34.07
2019-05-01T04:23:42.699Z,32.47
2019-05-01T04:26:11.894Z,31.50
2019-05-01T04:29:03.168Z,31.63
2019-05-01T04:31:39.607Z,33.50
2019-05-01T04:34:16.598Z,34.33
2019-05-01T04:36:49.113Z,34.23
2019-05-01T04:39:18.610Z,36.37
2019-05-01T04:41:47.594Z,34.30
2019-05-01T04:44:16.897Z,36.03
2019-05-01T04:46:45.730Z,34.47
2019-05-01T04:49:17.894Z,36.03
2019-05-01T04:51:45.808Z,36.63
2019-05-01T04:54:14.821Z,35.90
2019-05-01T04:56:44.447Z,34.83
2019-05-01T04:59:13.580Z,35.73
2019-05-01T05:02:00.736Z,34.97
2019-05-01T05:04:30.153Z,34.43
2019-05-01T05:07:00.364Z,35.67
2019-05-01T05:09:47.985Z,37.77
2019-05-01T05:12:23.910Z,36.30
2019-05-01T05:14:57.447Z,34.27
2019-05-01T05:17:26.707Z,35.63
2019-05-01T05:19:56.202Z,37.00
2019-05-01T05:22:25.806Z,36.10
2019-05-01T05:24:54.659Z,35.80
2019-05-01T05:27:25.177Z,36.47
2019-05-01T05:29:57.418Z,36.23
2019-05-01T05:32:28.466Z,37.17
2019-05-01T05:34:59.269Z,36.77
2019-05-01T05:37:37.699Z,36.43
2019-05-01T05:40:06.920Z,35.67
2019-05-01T05:42:35.876Z,34.33
2019-05-01T05:45:05.110Z,35.17
2019-05-01T05:47:34.008Z,35.63
2019-05-01T05:50:03.375Z,35.90
2019-05-01T05:52:49.723Z,34.43
2019-05-01T05:55:32.753Z,34.27
2019-05-01T05:58:10.500Z,35.73
2019-05-01T06:01:04.576Z,33.93
2019-05-01T06:03:53.503Z,34.13
2019-05-01T06:06:35.079Z,31.37
2019-05-01T06:09:08.900Z,32.43
2019-05-01T06:12:00.350Z,33.63
2019-05-01T06:14:50.828Z,32.07
2019-05-01T06:17:37.767Z,30.87
2019-05-01T06:20:14.183Z,32.70
2019-05-01T06:23:07.230Z,32.13
2019-05-01T06:25:39.070Z,25.57
2019-05-01T06:28:08.584Z,29.40
2019-05-01T06:30:37.653Z,30.70
2019-05-01T06:33:09.420Z,31.10
2019-05-01T06:35:38.230Z,30.40
2019-05-01T06:38:14.544Z,30.37
2019-05-01T06:40:53.135Z,30.50
2019-05-01T06:43:43.463Z,31.13
2019-05-01T06:46:37.771Z,29.80
2019-05-01T06:49:19.508Z,29.23
2019-05-01T06:51:55.177Z,29.27
2019-05-01T06:54:26.797Z,25.10
2019-05-01T06:56:57.730Z,27.20
2019-05-01T06:59:31.468Z,30.50
2019-05-01T07:02:00.265Z,28.70
2019-05-01T07:04:32.182Z,28.77
2019-05-01T07:07:06.798Z,28.10
2019-05-01T07:09:34.895Z,28.37
2019-05-01T07:12:07.356Z,28.07
2019-05-01T07:14:36.459Z,28.77
2019-05-01T07:17:09.039Z,30.20
2019-05-01T07:19:54.822Z,30.40
2019-05-01T07:22:24.038Z,29.53
2019-05-01T07:25:06.212Z,30.07
2019-05-01T07:27:35.274Z,29.63
2019-05-01T07:30:15.947Z,28.63
2019-05-01T07:32:45.981Z,27.80
2019-05-01T07:35:15.075Z,28.00
2019-05-01T07:37:44.599Z,28.20
2019-05-01T07:40:14.040Z,27.30
2019-05-01T07:42:48.256Z,26.03
2019-05-01T07:45:33.988Z,25.97
2019-05-01T07:48:05.609Z,25.57
2019-05-01T07:50:33.908Z,25.37
2019-05-01T07:53:03.061Z,25.03
2019-05-01T07:55:38.014Z,25.03
2019-05-01T07:58:10.201Z,23.77
2019-05-01T08:00:51.346Z,23.53
2019-05-01T08:03:42.730Z,23.00
2019-05-01T08:06:10.034Z,22.87
2019-05-01T08:08:39.965Z,24.30
2019-05-01T08:11:10.344Z,23.37
2019-05-01T08:13:39.379Z,22.47
2019-05-01T08:16:08.797Z,21.97
2019-05-01T08:18:44.022Z,22.70
2019-05-01T08:21:27.862Z,22.47
2019-05-01T08:23:56.855Z,23.30
2019-05-01T08:26:27.523Z,23.87
2019-05-01T08:29:24.866Z,21.93
2019-05-01T08:32:03.486Z,24.50
2019-05-01T08:34:33.338Z,20.93
2019-05-01T08:37:02.312Z,22.57
2019-05-01T08:39:31.098Z,22.33
2019-05-01T08:42:02.973Z,22.40
2019-05-01T08:44:37.059Z,21.43
2019-05-01T08:47:14.672Z,22.10
2019-05-01T08:49:53.754Z,21.27
2019-05-01T08:52:22.617Z,21.87
2019-05-01T08:54:51.389Z,21.37
2019-05-01T08:57:20.153Z,21.93
2019-05-01T08:59:49.045Z,22.93
2019-05-01T09:02:17.990Z,21.53
2019-05-01T09:04:46.980Z,22.50
2019-05-01T09:07:19.192Z,20.50
2019-05-01T09:09:47.467Z,22.87
2019-05-01T09:12:16.498Z,22.30
2019-05-01T09:14:45.363Z,21.83
2019-05-01T09:17:14.235Z,20.87
2019-05-01T09:19:43.121Z,22.47
2019-05-01T09:22:12.042Z,21.67
2019-05-01T09:24:41.417Z,20.83
2019-05-01T09:27:31.155Z,22.30
2019-05-01T09:30:04.295Z,21.77
2019-05-01T09:32:32.013Z,22.37
2019-05-01T09:35:00.896Z,22.20
2019-05-01T09:37:29.790Z,21.97
2019-05-01T09:39:58.773Z,23.47
2019-05-01T09:42:27.745Z,22.20
2019-05-01T09:44:56.854Z,22.17
2019-05-01T09:47:26.589Z,23.67
2019-05-01T09:49:55.998Z,22.20
2019-05-01T09:52:32.572Z,21.90
2019-05-01T09:55:12.018Z,21.77
2019-05-01T09:57:41.282Z,21.50
2019-05-01T10:00:17.521Z,22.93
2019-05-01T10:02:46.445Z,22.13
2019-05-01T10:05:27.943Z,24.83
2019-05-01T10:07:46.127Z,26.47
2019-05-01T10:10:15.047Z,26.33
2019-05-01T10:12:46.906Z,24.83
2019-05-01T10:15:14.998Z,24.17
2019-05-01T10:17:43.879Z,23.33
2019-05-01T10:20:12.797Z,25.00
2019-05-01T10:22:41.661Z,24.03
2019-05-01T10:25:12.374Z,23.20
2019-05-01T10:27:44.355Z,23.87
2019-05-01T10:30:31.750Z,23.13
2019-05-01T10:33:04.884Z,22.77
2019-05-01T10:35:43.080Z,22.07
2019-05-01T10:38:10.775Z,23.27
2019-05-01T10:40:39.824Z,22.87
2019-05-01T10:43:08.796Z,21.13
2019-05-01T10:45:37.566Z,21.73
2019-05-01T10:48:06.472Z,23.27
2019-05-01T10:50:35.268Z,22.90
2019-05-01T10:53:04.203Z,21.83
2019-05-01T10:55:32.986Z,21.13
2019-05-01T10:58:03.326Z,22.20
2019-05-01T11:00:33.377Z,20.83
2019-05-01T11:03:02.297Z,20.87
2019-05-01T11:05:31.186Z,20.83
2019-05-01T11:08:00.026Z,21.30
2019-05-01T11:10:28.855Z,22.00
2019-05-01T11:12:57.613Z,21.77
2019-05-01T11:15:26.535Z,20.33
2019-05-01T11:17:55.344Z,20.97
2019-05-01T11:20:24.245Z,20.40
2019-05-01T11:22:53.069Z,20.77
2019-05-01T11:25:22.223Z,19.97
2019-05-01T11:27:51.012Z,19.03
2019-05-01T11:30:20.002Z,18.57
2019-05-01T11:32:55.590Z,18.60
2019-05-01T11:35:49.747Z,18.53
2019-05-01T11:38:28.905Z,16.17
2019-05-01T11:41:01.659Z,16.27
2019-05-01T11:43:30.572Z,17.50
2019-05-01T11:45:59.410Z,17.30
2019-05-01T11:48:30.103Z,16.57
2019-05-01T11:50:59.067Z,14.40
2019-05-01T11:53:27.937Z,13.97
2019-05-01T11:55:56.665Z,13.37
2019-05-01T11:58:25.488Z,13.87
2019-05-01T12:00:56.343Z,13.07
2019-05-01T12:03:26.542Z,14.10
2019-05-01T12:05:55.476Z,13.23
2019-05-01T12:08:24.338Z,12.80
2019-05-01T12:10:53.277Z,12.90
2019-05-01T12:13:22.124Z,12.70
2019-05-01T12:15:57.852Z,11.87
2019-05-01T12:18:26.699Z,13.37
2019-05-01T12:20:55.560Z,11.40
2019-05-01T12:23:24.392Z,11.63
2019-05-01T12:25:53.110Z,11.53
2019-05-01T12:28:21.931Z,11.73
2019-05-01T12:30:50.797Z,11.40
2019-05-01T12:33:19.542Z,13.77
2019-05-01T12:35:50.025Z,11.50
2019-05-01T12:38:18.813Z,10.33
2019-05-01T12:41:06.833Z,10.23
2019-05-01T12:43:35.809Z,10.67
2019-05-01T12:46:04.996Z,10.73
2019-05-01T12:48:33.827Z,10.50
2019-05-01T12:51:02.695Z,9.90
2019-05-01T12:53:42.631Z,9.50
2019-05-01T12:56:23.552Z,9.13
2019-05-01T12:58:52.470Z,9.13
2019-05-01T13:01:21.363Z,11.10
2019-05-01T13:03:50.317Z,10.00
2019-05-01T13:06:19.204Z,9.03
2019-05-01T13:08:48.025Z,9.30
2019-05-01T13:11:16.838Z,9.07
2019-05-01T13:13:45.672Z,10.10
2019-05-01T13:16:14.476Z,10.13
2019-05-01T13:18:43.383Z,9.47
2019-05-01T13:21:12.461Z,10.17
2019-05-01T13:23:41.284Z,8.90
2019-05-01T13:26:17.622Z,10.80
2019-05-01T13:28:55.934Z,9.23
2019-05-01T13:32:02.440Z,10.33
2019-05-01T13:34:31.283Z,9.73
2019-05-01T13:37:03.180Z,9.53
2019-05-01T13:39:30.814Z,9.93
2019-05-01T13:41:59.739Z,9.03
2019-05-01T13:44:28.757Z,10.00
2019-05-01T13:46:57.621Z,9.70
2019-05-01T13:49:26.494Z,8.60
2019-05-01T13:51:56.491Z,10.00
2019-05-01T13:54:25.621Z,9.63
2019-05-01T13:56:54.487Z,10.07
2019-05-01T13:59:23.643Z,9.33
2019-05-01T14:01:52.526Z,9.60
2019-05-01T14:04:21.813Z,9.47
2019-05-01T14:06:50.764Z,9.57
2019-05-01T14:09:25.389Z,9.30
2019-05-01T14:11:54.274Z,9.47
2019-05-01T14:14:23.028Z,9.47
2019-05-01T14:16:51.810Z,9.27
2019-05-01T14:19:29.974Z,9.20
2019-05-01T14:22:19.073Z,9.13
2019-05-01T14:24:51.085Z,9.63
2019-05-01T14:27:19.948Z,9.40
2019-05-01T14:29:48.826Z,8.87
2019-05-01T14:32:17.700Z,10.40
2019-05-01T14:34:46.750Z,9.80
2019-05-01T14:37:15.640Z,9.63
2019-05-01T14:39:46.115Z,9.27
2019-05-01T14:42:14.907Z,9.00
2019-05-01T14:44:43.847Z,9.70
2019-05-01T14:47:12.733Z,10.70
2019-05-01T14:49:41.591Z,9.77
2019-05-01T14:52:10.456Z,9.00
2019-05-01T14:54:39.346Z,10.33
2019-05-01T14:57:08.192Z,9.93
2019-05-01T14:59:37.110Z,8.90
2019-05-01T15:02:06.025Z,8.33
2019-05-01T15:04:34.888Z,9.47
2019-05-01T15:07:03.852Z,9.47
2019-05-01T15:09:32.786Z,8.90
2019-05-01T15:12:01.612Z,9.80
2019-05-01T15:15:07.700Z,8.97
2019-05-01T15:17:45.367Z,8.63
2019-05-01T15:20:14.844Z,9.17
2019-05-01T15:22:43.803Z,9.07
2019-05-01T15:25:12.758Z,8.87
2019-05-01T15:27:41.595Z,8.80
2019-05-01T15:30:13.883Z,9.37
2019-05-01T15:32:42.940Z,9.60
2019-05-01T15:35:11.991Z,9.67
2019-05-01T15:38:00.149Z,10.47
2019-05-01T15:40:34.830Z,9.77
2019-05-01T15:43:24.299Z,9.27
2019-05-01T15:45:53.979Z,9.23
2019-05-01T15:48:22.736Z,9.40
2019-05-01T15:50:51.599Z,9.37
2019-05-01T15:53:20.689Z,9.00
2019-05-01T15:55:49.670Z,9.13
2019-05-01T15:58:18.691Z,9.00
2019-05-01T16:00:47.583Z,9.53
2019-05-01T16:03:16.456Z,9.97
2019-05-01T16:05:45.332Z,9.50
2019-05-01T16:08:14.152Z,8.90
2019-05-01T16:10:50.556Z,10.63
2019-05-01T16:13:19.363Z,9.53
2019-05-01T16:15:48.290Z,11.30
2019-05-01T16:18:17.163Z,10.20
2019-05-01T16:20:46.085Z,9.90
2019-05-01T16:23:14.939Z,11.23
2019-05-01T16:25:43.702Z,11.00
2019-05-01T16:28:12.717Z,10.40
2019-05-01T16:30:41.489Z,11.40
2019-05-01T16:33:12.864Z,10.17
2019-05-01T16:35:41.778Z,11.47
2019-05-01T16:38:23.022Z,11.07
2019-05-01T16:41:10.459Z,12.83
2019-05-01T16:43:39.473Z,12.70
2019-05-01T16:46:08.477Z,11.90
2019-05-01T16:48:37.537Z,11.47
2019-05-01T16:51:06.354Z,13.43
2019-05-01T16:53:35.243Z,11.53
2019-05-01T16:56:04.114Z,13.27
2019-05-01T16:58:33.850Z,11.30
2019-05-01T17:01:06.624Z,11.53
2019-05-01T17:03:49.891Z,12.23
2019-05-01T17:06:28.783Z,12.83
2019-05-01T17:09:00.806Z,13.03
2019-05-01T17:12:05.423Z,13.60
2019-05-01T17:14:34.726Z,13.20
2019-05-01T17:17:05.310Z,12.67
2019-05-01T17:19:34.110Z,13.47
2019-05-01T17:22:02.912Z,15.00
2019-05-01T17:24:31.792Z,15.03
2019-05-01T17:27:00.582Z,14.37
2019-05-01T17:29:29.451Z,13.73
2019-05-01T17:31:58.477Z,15.00
2019-05-01T17:34:30.604Z,14.57
2019-05-01T17:36:57.871Z,14.73
2019-05-01T17:39:26.739Z,14.73
2019-05-01T17:41:57.551Z,15.80
2019-05-01T17:44:26.687Z,16.10
2019-05-01T17:46:55.516Z,16.20
2019-05-01T17:49:24.374Z,16.40
2019-05-01T17:51:53.238Z,16.47
2019-05-01T17:54:22.165Z,17.17
2019-05-01T17:56:53.846Z,17.20
2019-05-01T17:59:21.534Z,17.00
2019-05-01T18:02:05.283Z,16.10
2019-05-01T18:04:54.943Z,17.33
2019-05-01T18:07:24.415Z,16.70
2019-05-01T18:09:55.752Z,16.80
2019-05-01T18:12:28.590Z,16.77
2019-05-01T18:14:54.708Z,17.23
2019-05-01T18:17:23.987Z,16.17
2019-05-01T18:19:53.083Z,16.97
2019-05-01T18:22:37.245Z,17.20
2019-05-01T18:25:33.103Z,16.40
2019-05-01T18:28:06.068Z,18.87
2019-05-01T18:30:39.702Z,17.50
2019-05-01T18:33:08.906Z,18.40
2019-05-01T18:35:37.827Z,16.63
2019-05-01T18:38:23.154Z,16.80
2019-05-01T18:40:57.241Z,17.20
2019-05-01T18:43:26.925Z,18.07
2019-05-01T18:45:58.114Z,17.53
2019-05-01T18:48:27.211Z,17.80
2019-05-01T18:50:57.265Z,16.97
2019-05-01T18:53:26.195Z,17.37
2019-05-01T18:55:55.085Z,18.07
2019-05-01T18:58:24.059Z,16.77
2019-05-01T19:00:53.020Z,15.73
2019-05-01T19:03:22.557Z,17.93
2019-05-01T19:05:51.753Z,18.23
2019-05-01T19:08:20.872Z,17.73
2019-05-01T19:10:50.012Z,17.70
2019-05-01T19:13:19.038Z,18.10
2019-05-01T19:15:47.981Z,18.33
2019-05-01T19:18:16.979Z,19.70
2019-05-01T19:20:58.613Z,18.03
2019-05-01T19:23:16.568Z,17.97
2019-05-01T19:25:45.570Z,17.53
2019-05-01T19:28:15.405Z,18.60
2019-05-01T19:30:44.298Z,18.33
2019-05-01T19:33:13.249Z,17.43
2019-05-01T19:35:42.237Z,17.60
2019-05-01T19:38:11.661Z,18.13
2019-05-01T19:40:40.678Z,17.73
2019-05-01T19:43:10.821Z,19.63
2019-05-01T19:45:39.761Z,18.10
2019-05-01T19:48:08.712Z,19.27
2019-05-01T19:50:39.953Z,19.17
2019-05-01T19:53:10.005Z,20.13
2019-05-01T19:55:39.967Z,19.57
2019-05-01T19:58:10.381Z,20.17
2019-05-01T20:00:58.012Z,20.10
2019-05-01T20:03:30.674Z,20.87
2019-05-01T20:05:59.476Z,20.30
2019-05-01T20:08:28.958Z,21.67
2019-05-01T20:10:58.772Z,19.70
2019-05-01T20:13:29.299Z,19.47
2019-05-01T20:15:58.284Z,19.50
2019-05-01T20:18:28.217Z,20.33
2019-05-01T20:20:57.137Z,20.43
2019-05-01T20:23:31.536Z,20.27
2019-05-01T20:26:00.360Z,21.60
2019-05-01T20:28:29.646Z,21.83
2019-05-01T20:30:58.751Z,21.50
2019-05-01T20:33:27.588Z,20.33
2019-05-01T20:36:00.532Z,22.13
2019-05-01T20:38:28.862Z,21.70
2019-05-01T20:40:58.396Z,21.23
2019-05-01T20:43:27.422Z,22.87
2019-05-01T20:45:56.542Z,22.10
2019-05-01T20:48:25.615Z,21.17
2019-05-01T20:50:54.851Z,21.27
2019-05-01T20:53:23.897Z,21.37
2019-05-01T20:56:02.420Z,22.03
2019-05-01T20:58:31.384Z,21.87
2019-05-01T21:01:03.813Z,22.10
2019-05-01T21:03:37.891Z,22.93
2019-05-01T21:06:21.465Z,21.80
2019-05-01T21:08:58.017Z,22.37
2019-05-01T21:11:48.926Z,23.50
2019-05-01T21:14:22.616Z,23.07
2019-05-01T21:16:49.392Z,23.53
2019-05-01T21:19:18.268Z,24.67
2019-05-01T21:21:47.149Z,24.10
2019-05-01T21:24:16.029Z,23.63
2019-05-01T21:26:45.123Z,24.20
2019-05-01T21:29:14.270Z,24.30
2019-05-01T21:31:44.055Z,23.20
2019-05-01T21:34:14.502Z,23.23
2019-05-01T21:36:47.379Z,23.87
2019-05-01T21:39:14.981Z,22.47
2019-05-01T21:41:44.975Z,23.70
2019-05-01T21:44:14.071Z,22.33
2019-05-01T21:46:43.226Z,22.83
2019-05-01T21:49:12.976Z,22.70
2019-05-01T21:51:45.944Z,22.27
2019-05-01T21:54:15.888Z,21.70
2019-05-01T21:56:43.235Z,23.40
2019-05-01T21:59:12.226Z,22.60
2019-05-01T22:01:41.239Z,22.60
2019-05-01T22:04:10.005Z,22.80
2019-05-01T22:06:39.150Z,22.27
2019-05-01T22:09:15.209Z,23.97
2019-05-01T22:11:45.695Z,22.60
2019-05-01T22:14:21.710Z,23.17
2019-05-01T22:16:53.115Z,21.50
2019-05-01T22:19:23.161Z,23.43
2019-05-01T22:21:59.954Z,22.80
2019-05-01T22:24:48.927Z,22.13
2019-05-01T22:27:24.290Z,22.00
2019-05-01T22:29:59.803Z,21.30
2019-05-01T22:32:34.127Z,22.80
2019-05-01T22:35:13.624Z,22.47
2019-05-01T22:37:52.295Z,22.07
2019-05-01T22:40:29.374Z,22.73
2019-05-01T22:42:58.220Z,23.07
2019-05-01T22:45:27.246Z,22.93
2019-05-01T22:47:56.071Z,22.47
2019-05-01T22:50:24.933Z,21.87
2019-05-01T22:52:53.780Z,22.27
2019-05-01T22:55:25.228Z,23.23
2019-05-01T22:57:53.138Z,21.70
2019-05-01T23:00:34.443Z,21.70
2019-05-01T23:03:05.336Z,23.23
2019-05-01T23:05:34.801Z,22.83
2019-05-01T23:08:03.897Z,22.23
2019-05-01T23:10:32.918Z,22.37
2019-05-01T23:13:01.677Z,23.90
2019-05-01T23:15:31.719Z,22.33
2019-05-01T23:18:00.505Z,21.67
2019-05-01T23:20:29.323Z,22.63
2019-05-01T23:22:58.219Z,21.70
2019-05-01T23:25:27.012Z,21.33
2019-05-01T23:27:59.565Z,22.67
2019-05-01T23:30:27.142Z,22.57
2019-05-01T23:32:55.956Z,21.17
2019-05-01T23:35:24.904Z,23.50
2019-05-01T23:37:53.819Z,21.97
2019-05-01T23:40:22.727Z,21.83
2019-05-01T23:45:35.771Z,22.43
2019-05-01T23:48:04.689Z,23.27
2019-05-01T23:50:33.477Z,22.87
2019-05-01T23:53:02.305Z,22.00
2019-05-01T23:55:31.111Z,23.13
2019-05-01T23:58:00.004Z,23.47
